Terminal Aerodrome Forecast
Issued by NWS Northern Indiana

Home | Current Version | Previous Version | Text Only | Print | Product List | Glossary On
Versions: 1 2 3 4 5 6 7 8 9 10 11 12 13 14 15 16
852
FTUS43 KIWX 061125
TAFFWA
TAF
KFWA 061125Z 0612/0712 24006KT 5SM BR SCT250
     FM061400 24008KT P6SM SCT250=

USA.gov is the U.S. government's official web portal to all federal, state and local government web resources and services.